Time;durP1;ratioP1;P1;durP2;ratioP2;P2;SDS_P1;SDS_P2;PMS_P1;PMS_P2;Temp;Humidity;BMP_temperature;BMP_pressure;BME280_temperature;BME280_humidity;BME280_pressure;Samples;Min_cycle;Max_cycle;Signal;HPM_P1;HPM_P2
2022/05/12 00:00:15;;;;;;;;;;;;;;;22.56;62.15;97420.62;611767;232;65126;-70
2022/05/12 00:02:43;;;;;;;;;;;;;;;22.56;63.21;97425.16;611808;229;67297;-70
2022/05/12 00:05:11;;;;;;;;;;;;;;;22.56;63.01;97417.95;611326;232;66837;-70
2022/05/12 00:07:38;;;;;;;;;;;;;;;22.57;63.35;97421.42;611805;232;65093;-69
2022/05/12 00:10:08;;;;;;;;;;;;;;;22.57;64.17;97416.06;611792;232;64718;-69
2022/05/12 00:12:36;;;;;;;;;;;;;;;22.56;62.24;97417.12;611814;232;66936;-70
2022/05/12 00:15:05;;;;;;;;;;;;;;;22.56;63.26;97414.44;611764;232;65116;-69
2022/05/12 00:17:33;;;;;;;;;;;;;;;22.55;62.75;97416.33;611766;232;67047;-69
2022/05/12 00:20:00;;;;;;;;;;;;;;;22.55;63.48;97407.49;611881;232;66857;-69
2022/05/12 00:22:28;;;;;;;;;;;;;;;22.56;63.85;97409.08;611791;232;65590;-69
2022/05/12 00:24:55;;;;;;;;;;;;;;;22.55;63.54;97410.17;611796;232;67028;-70
2022/05/12 00:27:23;;;;;;;;;;;;;;;22.55;63.74;97415.53;611840;232;64412;-70
2022/05/12 00:29:50;;;;;;;;;;;;;;;22.56;62.87;97414.44;611822;232;65156;-69
2022/05/12 00:32:18;;;;;;;;;;;;;;;22.54;63.13;97412.05;611876;232;67085;-69
2022/05/12 00:34:45;;;;;;;;;;;;;;;22.55;62.87;97413.64;611776;229;67256;-70
2022/05/12 00:37:13;;;;;;;;;;;;;;;22.56;62.67;97417.12;611808;232;65218;-70
2022/05/12 00:39:40;;;;;;;;;;;;;;;22.54;63.86;97417.41;611815;232;67097;-70
2022/05/12 00:42:08;;;;;;;;;;;;;;;22.54;63.56;97411.25;611807;232;66896;-69
2022/05/12 00:44:35;;;;;;;;;;;;;;;22.53;62.99;97413.11;611903;232;65380;-70
2022/05/12 00:47:03;;;;;;;;;;;;;;;22.54;62.85;97419.29;611854;232;66946;-70
2022/05/12 00:49:32;;;;;;;;;;;;;;;22.55;62.46;97418.20;611861;232;67081;-70
2022/05/12 00:52:01;;;;;;;;;;;;;;;22.55;62.70;97423.56;611825;232;65359;-72
2022/05/12 00:54:33;;;;;;;;;;;;;;;22.55;62.92;97423.56;611844;232;66860;-72
2022/05/12 00:57:00;;;;;;;;;;;;;;;22.53;61.86;97414.98;611810;232;66898;-72
2022/05/12 00:59:29;;;;;;;;;;;;;;;22.54;63.25;97417.41;611809;232;64990;-70
2022/05/12 01:01:58;;;;;;;;;;;;;;;22.54;62.22;97416.61;611928;230;67473;-70
2022/05/12 01:04:26;;;;;;;;;;;;;;;22.54;63.12;97421.97;611397;232;66993;-70
2022/05/12 01:06:54;;;;;;;;;;;;;;;22.53;63.55;97418.46;611840;232;65509;-70
2022/05/12 01:09:22;;;;;;;;;;;;;;;22.54;62.95;97421.97;611796;232;67061;-70
2022/05/12 01:11:50;;;;;;;;;;;;;;;22.53;63.07;97426.50;611922;232;66843;-69
2022/05/12 01:14:19;;;;;;;;;;;;;;;22.53;63.97;97412.31;611771;232;63148;-69
2022/05/12 01:16:48;;;;;;;;;;;;;;;22.54;63.72;97421.97;611844;232;67022;-70
2022/05/12 01:19:17;;;;;;;;;;;;;;;22.53;63.42;97425.70;611844;232;64831;-69
2022/05/12 01:21:44;;;;;;;;;;;;;;;22.53;63.63;97420.34;611563;232;63038;-69
2022/05/12 01:24:12;;;;;;;;;;;;;;;22.53;63.82;97425.70;611845;232;64634;-70
2022/05/12 01:26:40;;;;;;;;;;;;;;;22.54;62.98;97424.64;611845;232;67074;-70
2022/05/12 01:29:07;;;;;;;;;;;;;;;22.52;62.44;97430.27;611830;232;65463;-70
2022/05/12 01:31:36;;;;;;;;;;;;;;;22.52;62.88;97427.58;611823;232;67127;-70
2022/05/12 01:34:04;;;;;;;;;;;;;;;22.52;62.53;97432.94;611796;232;66933;-70
2022/05/12 01:36:32;;;;;;;;;;;;;;;22.51;63.75;97431.34;611883;232;63031;-70
2022/05/12 01:38:59;;;;;;;;;;;;;;;22.52;62.79;97440.17;611819;232;64848;-70
2022/05/12 01:41:27;;;;;;;;;;;;;;;22.52;63.85;97434.82;611863;232;64369;-70
2022/05/12 01:43:55;;;;;;;;;;;;;;;22.51;62.46;97433.23;611841;232;65420;-70
2022/05/12 01:46:22;;;;;;;;;;;;;;;22.52;62.99;97432.14;611824;232;67136;-70
2022/05/12 01:48:51;;;;;;;;;;;;;;;22.53;64.07;97431.06;611777;232;67271;-70
2022/05/12 01:51:18;;;;;;;;;;;;;;;22.51;63.33;97436.70;611912;232;65153;-70
2022/05/12 01:53:46;;;;;;;;;;;;;;;22.52;63.08;97435.62;611807;232;67105;-70
2022/05/12 01:56:13;;;;;;;;;;;;;;;22.51;62.78;97434.02;611821;232;66947;-70
2022/05/12 01:58:41;;;;;;;;;;;;;;;22.51;62.65;97443.94;611832;232;64833;-72
2022/05/12 02:01:09;;;;;;;;;;;;;;;22.51;62.21;97442.06;611801;232;67072;-73
2022/05/12 02:03:37;;;;;;;;;;;;;;;22.51;63.21;97444.73;611763;232;66984;-73
2022/05/12 02:06:04;;;;;;;;;;;;;;;22.51;62.14;97444.73;611845;232;65237;-73
2022/05/12 02:08:31;;;;;;;;;;;;;;;22.50;62.38;97443.11;611845;232;66780;-73
2022/05/12 02:10:59;;;;;;;;;;;;;;;22.51;62.65;97450.09;611819;232;67058;-72
2022/05/12 02:13:27;;;;;;;;;;;;;;;22.51;62.08;97443.94;611846;232;65340;-72
2022/05/12 02:15:55;;;;;;;;;;;;;;;22.52;61.92;97445.53;611798;232;67320;-72
2022/05/12 02:18:23;;;;;;;;;;;;;;;22.50;62.71;97439.64;611832;232;65485;-72
2022/05/12 02:20:51;;;;;;;;;;;;;;;22.51;61.89;97438.58;611821;232;62959;-72
2022/05/12 02:23:18;;;;;;;;;;;;;;;22.50;62.25;97442.31;611811;232;67064;-72
2022/05/12 02:25:46;;;;;;;;;;;;;;;22.50;62.26;97447.67;611866;232;66874;-72
2022/05/12 02:28:14;;;;;;;;;;;;;;;22.51;62.61;97454.66;611833;232;65400;-72
2022/05/12 02:30:41;;;;;;;;;;;;;;;22.49;62.14;97448.75;611818;232;66998;-72
2022/05/12 02:33:09;;;;;;;;;;;;;;;22.49;63.27;97441.52;611841;232;66860;-72
2022/05/12 02:35:38;;;;;;;;;;;;;;;22.49;62.24;97446.08;611822;232;63011;-72
2022/05/12 02:38:06;;;;;;;;;;;;;;;22.48;62.44;97445.28;611837;232;67236;-72
2022/05/12 02:40:35;;;;;;;;;;;;;;;22.47;62.42;97442.86;611844;232;66873;-72
2022/05/12 02:43:02;;;;;;;;;;;;;;;22.48;62.27;97452.48;611784;232;65422;-72
2022/05/12 02:45:30;;;;;;;;;;;;;;;22.48;63.43;97442.60;611837;232;67203;-72
2022/05/12 02:47:58;;;;;;;;;;;;;;;22.48;63.38;97447.96;611823;232;66862;-72
2022/05/12 02:50:25;;;;;;;;;;;;;;;22.48;63.02;97452.48;611846;232;65154;-72
2022/05/12 02:52:52;;;;;;;;;;;;;;;22.48;61.85;97452.48;611864;232;67075;-70
2022/05/12 02:55:20;;;;;;;;;;;;;;;22.47;63.49;97453.57;611875;232;66313;-70
2022/05/12 02:57:47;;;;;;;;;;;;;;;22.47;63.65;97453.57;611834;232;65333;-70
2022/05/12 03:00:16;;;;;;;;;;;;;;;22.47;63.85;97451.69;611816;232;64707;-70
2022/05/12 03:02:44;;;;;;;;;;;;;;;22.48;62.97;97449.81;611783;229;65024;-70
2022/05/12 03:05:12;;;;;;;;;;;;;;;22.46;62.71;97452.77;611890;232;63908;-70
2022/05/12 03:07:40;;;;;;;;;;;;;;;22.46;63.15;97460.81;611835;232;64642;-70
2022/05/12 03:10:08;;;;;;;;;;;;;;;22.47;63.49;97453.57;611830;232;66629;-70
2022/05/12 03:12:36;;;;;;;;;;;;;;;22.46;62.89;97454.66;611834;232;65611;-69
2022/05/12 03:15:05;;;;;;;;;;;;;;;22.46;62.46;97462.69;611807;232;66778;-69
2022/05/12 03:17:32;;;;;;;;;;;;;;;22.46;62.08;97466.16;611887;232;64816;-69
2022/05/12 03:20:00;;;;;;;;;;;;;;;22.46;62.27;97466.16;611826;232;64255;-69
2022/05/12 03:22:28;;;;;;;;;;;;;;;22.47;62.47;97469.64;611808;232;65539;-69
2022/05/12 03:24:55;;;;;;;;;;;;;;;22.47;62.85;97469.64;611786;232;64959;-69
2022/05/12 03:27:22;;;;;;;;;;;;;;;22.46;63.20;97466.16;611783;232;63069;-69
2022/05/12 03:29:50;;;;;;;;;;;;;;;22.45;62.58;97472.58;611874;232;65267;-70
2022/05/12 03:32:17;;;;;;;;;;;;;;;22.45;62.21;97471.78;611846;232;66829;-70
2022/05/12 03:34:45;;;;;;;;;;;;;;;22.45;62.55;97474.45;611844;232;65115;-69
2022/05/12 03:37:13;;;;;;;;;;;;;;;22.45;62.80;97472.58;611782;232;67090;-69
2022/05/12 03:39:41;;;;;;;;;;;;;;;22.45;62.11;97477.13;611841;232;64848;-70
2022/05/12 03:42:10;;;;;;;;;;;;;;;22.45;62.37;97477.93;611781;232;65161;-70
2022/05/12 03:44:47;;;;;;;;;;;;;;;22.45;62.70;97475.25;611882;232;64632;-70
2022/05/12 03:47:15;;;;;;;;;;;;;;;22.45;63.09;97479.81;611830;229;64613;-70
2022/05/12 03:49:43;;;;;;;;;;;;;;;22.44;62.89;97478.22;611791;232;65378;-70
2022/05/12 03:52:10;;;;;;;;;;;;;;;22.44;62.58;97475.54;611819;232;67080;-70
2022/05/12 03:54:37;;;;;;;;;;;;;;;22.43;62.98;97474.74;611800;232;66858;-70
2022/05/12 03:57:06;;;;;;;;;;;;;;;22.43;62.34;97484.66;611866;232;63090;-70
2022/05/12 03:59:34;;;;;;;;;;;;;;;22.44;62.73;97481.69;611825;232;67104;-70
2022/05/12 04:02:02;;;;;;;;;;;;;;;22.42;62.74;97481.15;611918;229;67027;-70
2022/05/12 04:04:29;;;;;;;;;;;;;;;22.42;63.98;97483.83;611434;232;65057;-70
2022/05/12 04:06:57;;;;;;;;;;;;;;;22.44;64.35;97480.89;611821;232;64662;-70
2022/05/12 04:09:24;;;;;;;;;;;;;;;22.43;63.18;97488.13;611837;232;64303;-70
2022/05/12 04:11:52;;;;;;;;;;;;;;;22.42;62.96;97493.74;611861;232;64381;-72
2022/05/12 04:14:19;;;;;;;;;;;;;;;22.42;62.24;97494.54;611810;232;67172;-71
2022/05/12 04:16:48;;;;;;;;;;;;;;;22.41;63.65;97490.27;611714;232;67372;-71
2022/05/12 04:19:15;;;;;;;;;;;;;;;22.42;63.56;97489.19;611798;232;65329;-72
2022/05/12 04:21:43;;;;;;;;;;;;;;;22.41;63.31;97487.59;611802;232;67344;-72
2022/05/12 04:24:10;;;;;;;;;;;;;;;22.42;63.48;97491.06;611823;232;66884;-72
2022/05/12 04:26:39;;;;;;;;;;;;;;;22.41;63.33;97492.15;611804;232;65142;-72
2022/05/12 04:29:07;;;;;;;;;;;;;;;22.40;62.94;97491.34;611786;232;67972;-71
2022/05/12 04:31:34;;;;;;;;;;;;;;;22.41;63.35;97492.15;611813;232;66708;-71
2022/05/12 04:36:48;;;;;;;;;;;;;;;22.40;63.56;97491.34;611862;232;64574;-71
2022/05/12 04:39:16;;;;;;;;;;;;;;;22.41;64.61;97497.50;611832;232;64776;-71
2022/05/12 04:41:43;;;;;;;;;;;;;;;22.39;63.50;97500.44;611766;232;65134;-71
2022/05/12 04:44:11;;;;;;;;;;;;;;;22.39;63.85;97503.11;611829;232;67269;-71
2022/05/12 04:46:40;;;;;;;;;;;;;;;22.39;63.75;97503.11;611792;232;64810;-71
2022/05/12 04:49:08;;;;;;;;;;;;;;;22.39;63.86;97501.23;611814;232;65503;-71
2022/05/12 04:51:37;;;;;;;;;;;;;;;22.39;64.31;97511.95;611844;232;64894;-71
2022/05/12 04:54:09;;;;;;;;;;;;;;;22.39;64.49;97503.91;611751;232;66958;-71
2022/05/12 04:56:34;;;;;;;;;;;;;;;22.37;63.05;97500.72;611777;230;65403;-71
2022/05/12 04:59:02;;;;;;;;;;;;;;;22.38;63.99;97502.31;611789;232;67071;-71
2022/05/12 05:01:29;;;;;;;;;;;;;;;22.39;63.85;97503.11;611752;232;66902;-71
2022/05/12 05:04:00;;;;;;;;;;;;;;;22.38;62.96;97505.00;611536;230;63015;-71
2022/05/12 05:06:26;;;;;;;;;;;;;;;22.37;62.97;97503.40;611111;229;64820;-76
2022/05/12 05:08:53;;;;;;;;;;;;;;;22.37;63.37;97499.89;611666;232;64759;-72
2022/05/12 05:11:22;;;;;;;;;;;;;;;22.40;63.77;97504.73;611714;232;63073;-72
2022/05/12 05:13:49;;;;;;;;;;;;;;;22.39;62.67;97506.59;605818;231;70261;-72
2022/05/12 05:16:18;;;;;;;;;;;;;;;22.39;62.60;97500.44;606076;231;70387;-72
2022/05/12 05:18:45;;;;;;;;;;;;;;;22.38;63.58;97499.64;611273;232;65118;-72
2022/05/12 05:21:13;;;;;;;;;;;;;;;22.37;63.91;97503.40;611774;232;66905;-72
2022/05/12 05:23:41;;;;;;;;;;;;;;;22.37;63.30;97503.40;611804;232;66613;-72
2022/05/12 05:26:08;;;;;;;;;;;;;;;22.38;63.19;97505.00;611822;232;62966;-72
2022/05/12 05:28:36;;;;;;;;;;;;;;;22.38;64.07;97498.84;611813;232;67111;-72
2022/05/12 05:31:05;;;;;;;;;;;;;;;22.38;63.95;97509.55;611844;232;67411;-72
2022/05/12 05:33:32;;;;;;;;;;;;;;;22.37;63.96;97503.40;611847;232;65085;-72
2022/05/12 05:36:00;;;;;;;;;;;;;;;22.37;63.11;97498.05;611784;232;65775;-72
2022/05/12 05:38:27;;;;;;;;;;;;;;;22.37;65.08;97503.40;611843;232;66924;-70
2022/05/12 05:40:55;;;;;;;;;;;;;;;22.38;65.00;97502.31;611835;232;65362;-70
2022/05/12 05:43:23;;;;;;;;;;;;;;;22.36;63.75;97504.45;611857;232;67123;-70
2022/05/12 05:45:51;;;;;;;;;;;;;;;22.37;64.39;97502.57;611848;232;66987;-70
2022/05/12 05:48:18;;;;;;;;;;;;;;;22.36;63.67;97499.09;611706;232;65129;-71
2022/05/12 05:53:33;;;;;;;;;;;;;;;22.36;63.91;97507.13;611710;232;67925;-73
2022/05/12 05:56:01;;;;;;;;;;;;;;;22.37;64.91;97502.57;611185;232;65377;-73
2022/05/12 05:58:30;;;;;;;;;;;;;;;22.36;63.58;97512.48;611791;232;65096;-70
2022/05/12 06:00:58;;;;;;;;;;;;;;;22.37;64.87;97500.72;611756;232;67182;-75
2022/05/12 06:03:26;;;;;;;;;;;;;;;22.36;64.31;97501.77;611567;232;64968;-70
2022/05/12 06:05:53;;;;;;;;;;;;;;;22.36;65.12;97501.77;611664;232;64895;-70
2022/05/12 06:08:21;;;;;;;;;;;;;;;22.34;64.64;97501.26;611771;232;66908;-69
2022/05/12 06:10:49;;;;;;;;;;;;;;;22.34;63.57;97498.58;612772;229;65083;-69
2022/05/12 06:13:16;;;;;;;;;;;;;;;22.34;64.19;97498.58;618210;228;64920;-70
2022/05/12 06:15:44;;;;;;;;;;;;;;;22.34;63.51;97495.91;618260;229;64745;-75
2022/05/12 06:18:13;;;;;;;;;;;;;;;22.34;63.47;97495.91;618232;229;63935;-70
2022/05/12 06:20:42;;;;;;;;;;;;;;;22.34;65.15;97503.11;618277;229;67247;-70
2022/05/12 06:23:11;;;;;;;;;;;;;;;22.34;63.08;97498.58;618314;227;65064;-70
2022/05/12 06:25:39;;;;;;;;;;;;;;;22.35;63.38;97497.50;618287;229;62913;-70
2022/05/12 06:28:07;;;;;;;;;;;;;;;22.34;63.83;97500.44;613219;229;67090;-72
2022/05/12 06:30:35;;;;;;;;;;;;;;;22.37;63.50;97491.86;610618;232;66850;-70
2022/05/12 06:33:03;;;;;;;;;;;;;;;22.36;64.22;97491.06;610635;232;65368;-70
2022/05/12 06:35:31;;;;;;;;;;;;;;;22.36;63.90;97488.39;610655;232;67260;-70
2022/05/12 06:37:59;;;;;;;;;;;;;;;22.38;63.48;97491.61;610655;232;64706;-69
2022/05/12 06:40:26;;;;;;;;;;;;;;;22.37;63.36;97494.54;610476;232;63068;-72
2022/05/12 06:42:54;;;;;;;;;;;;;;;22.37;63.94;97492.69;610003;232;64896;-71
2022/05/12 06:45:23;;;;;;;;;;;;;;;22.38;62.55;97486.25;609878;232;44380;-71
2022/05/12 06:47:52;;;;;;;;;;;;;;;22.38;62.68;97491.61;610613;232;65408;-71
2022/05/12 06:50:21;;;;;;;;;;;;;;;22.41;63.54;97489.47;610591;232;66891;-71
2022/05/12 06:52:49;;;;;;;;;;;;;;;22.42;65.28;97491.06;610526;232;66839;-71
2022/05/12 06:55:17;;;;;;;;;;;;;;;22.42;64.13;97488.39;610570;232;62973;-70
2022/05/12 06:57:45;;;;;;;;;;;;;;;22.43;66.75;97484.66;610640;232;67127;-70
2022/05/12 07:00:16;;;;;;;;;;;;;;;22.44;65.52;97488.93;610467;232;66699;-70
2022/05/12 07:02:45;;;;;;;;;;;;;;;22.42;65.71;97486.51;613123;229;66101;-70
2022/05/12 07:05:13;;;;;;;;;;;;;;;22.43;64.23;97479.30;615279;230;64314;-70
2022/05/12 07:07:42;;;;;;;;;;;;;;;22.44;66.11;97486.25;616282;230;66541;-71
2022/05/12 07:10:09;;;;;;;;;;;;;;;22.43;65.27;97481.98;616371;230;64055;-70
2022/05/12 07:12:37;;;;;;;;;;;;;;;22.44;65.44;97481.69;616399;230;67080;-70
2022/05/12 07:15:05;;;;;;;;;;;;;;;22.44;64.69;97475.54;616376;230;64700;-71
2022/05/12 07:17:37;;;;;;;;;;;;;;;22.44;65.87;97473.66;616470;230;65399;-70
2022/05/12 07:28:19;;;;;;;;;;;;;;;22.45;66.58;97469.89;616285;230;67293;-70
2022/05/12 07:31:02;;;;;;;;;;;;;;;22.44;66.57;97476.34;616367;230;64359;-70
2022/05/12 07:33:30;;;;;;;;;;;;;;;22.44;66.08;97470.19;616424;230;65322;-71
2022/05/12 07:36:00;;;;;;;;;;;;;;;22.46;67.14;97473.41;616340;230;65823;-70
2022/05/12 07:38:28;;;;;;;;;;;;;;;22.44;66.69;97470.98;616364;230;66960;-72
2022/05/12 07:40:55;;;;;;;;;;;;;;;22.44;66.20;97465.63;616359;230;65151;-72
2022/05/12 07:43:23;;;;;;;;;;;;;;;22.45;66.41;97464.54;616293;230;67108;-74
2022/05/12 07:45:50;;;;;;;;;;;;;;;22.45;66.83;97463.74;616415;230;66747;-72
2022/05/12 07:48:19;;;;;;;;;;;;;;;22.46;66.95;97470.72;616450;230;63328;-72
2022/05/12 07:50:46;;;;;;;;;;;;;;;22.46;66.91;97465.37;616398;230;67059;-72
2022/05/12 07:53:14;;;;;;;;;;;;;;;22.46;66.33;97470.72;616442;230;66563;-72
2022/05/12 07:55:41;;;;;;;;;;;;;;;22.45;66.04;97467.22;616351;230;66639;-75
2022/05/12 07:58:11;;;;;;;;;;;;;;;22.47;66.54;97469.64;616345;230;67184;-71
2022/05/12 08:00:40;;;;;;;;;;;;;;;22.47;66.55;97469.64;616393;230;67472;-70
2022/05/12 08:03:08;;;;;;;;;;;;;;;22.46;66.30;97463.48;616276;230;63224;-70
2022/05/12 08:05:36;;;;;;;;;;;;;;;22.47;66.85;97466.96;616388;230;64930;-69
2022/05/12 08:08:04;;;;;;;;;;;;;;;22.47;66.28;97464.28;616363;230;66864;-69
2022/05/12 08:10:32;;;;;;;;;;;;;;;22.47;67.62;97459.72;616381;230;65311;-73
2022/05/12 08:13:00;;;;;;;;;;;;;;;22.48;65.84;97465.88;616391;230;67146;-71
2022/05/12 08:15:28;;;;;;;;;;;;;;;22.49;66.72;97462.95;616411;230;66848;-74
2022/05/12 08:18:01;;;;;;;;;;;;;;;22.48;66.82;97460.52;616412;230;65438;-70
2022/05/12 08:20:26;;;;;;;;;;;;;;;22.49;65.73;97467.50;611243;229;66574;-70
2022/05/12 08:22:53;;;;;;;;;;;;;;;22.49;66.38;97462.15;616399;230;66776;-70
2022/05/12 08:25:21;;;;;;;;;;;;;;;22.48;66.23;97458.67;616419;230;65366;-70
2022/05/12 08:27:48;;;;;;;;;;;;;;;22.48;65.57;97455.16;616429;230;67204;-70
2022/05/12 08:30:17;;;;;;;;;;;;;;;22.49;64.82;97454.11;616402;230;64579;-69
2022/05/12 08:32:45;;;;;;;;;;;;;;;22.48;64.23;97460.52;616339;230;65361;-70
2022/05/12 08:35:13;;;;;;;;;;;;;;;22.48;65.04;97450.64;616350;230;68582;-70
2022/05/12 08:37:40;;;;;;;;;;;;;;;22.48;65.15;97447.96;616483;230;66450;-70
2022/05/12 08:40:09;;;;;;;;;;;;;;;22.48;64.99;97439.92;616386;230;65358;-70
2022/05/12 08:42:38;;;;;;;;;;;;;;;22.49;64.82;97446.08;616318;230;64391;-69
2022/05/12 08:45:07;;;;;;;;;;;;;;;22.49;64.37;97448.75;616274;230;64563;-70
2022/05/12 08:47:35;;;;;;;;;;;;;;;22.50;64.21;97453.03;616327;230;65453;-70
2022/05/12 08:50:04;;;;;;;;;;;;;;;22.48;64.54;97450.64;616472;230;64606;-71
2022/05/12 08:52:47;;;;;;;;;;;;;;;22.48;64.22;97449.81;616398;230;64438;-75
2022/05/12 08:55:16;;;;;;;;;;;;;;;22.49;63.88;97451.44;616365;230;65741;-71
2022/05/12 08:58:04;;;;;;;;;;;;;;;22.50;63.59;97453.03;616411;230;64477;-68
2022/05/12 09:00:33;;;;;;;;;;;;;;;22.50;64.08;97453.03;616343;230;66687;-72
2022/05/12 09:03:06;;;;;;;;;;;;;;;22.50;64.88;97459.19;614283;230;66178;-73
2022/05/12 09:05:39;;;;;;;;;;;;;;;22.50;64.43;97447.67;606347;231;66983;-74
2022/05/12 09:08:18;;;;;;;;;;;;;;;22.50;65.02;97447.67;611874;232;63689;-73
2022/05/12 09:10:47;;;;;;;;;;;;;;;22.50;64.58;97453.83;610233;232;65400;-71
2022/05/12 09:13:32;;;;;;;;;;;;;;;22.51;64.18;97443.94;609952;231;66811;-70
2022/05/12 09:16:07;;;;;;;;;;;;;;;22.51;64.72;97446.62;609918;232;67078;-70
2022/05/12 09:18:36;;;;;;;;;;;;;;;22.52;64.65;97442.86;609986;230;63230;-70
2022/05/12 09:21:09;;;;;;;;;;;;;;;22.53;65.04;97441.77;610045;232;66973;-70
2022/05/12 09:23:37;;;;;;;;;;;;;;;22.52;63.78;97435.62;610090;232;64725;-70
2022/05/12 09:26:22;;;;;;;;;;;;;;;22.53;65.59;97436.41;610094;232;65723;-72
2022/05/12 09:28:49;;;;;;;;;;;;;;;22.54;64.77;97432.68;600186;236;66869;-70
2022/05/12 09:31:18;;;;;;;;;;;;;;;22.55;66.49;97431.59;606764;232;66656;-70
2022/05/12 09:33:47;;;;;;;;;;;;;;;22.56;65.59;97441.23;610044;231;65120;-70
2022/05/12 09:36:19;;;;;;;;;;;;;;;22.54;64.72;97438.84;610051;232;66545;-69
2022/05/12 09:38:48;;;;;;;;;;;;;;;22.55;65.05;97428.92;609307;232;64587;-70
2022/05/12 09:41:17;;;;;;;;;;;;;;;22.56;64.48;97427.84;609960;232;65309;-71
2022/05/12 09:43:45;;;;;;;;;;;;;;;22.57;65.40;97426.78;609972;232;65162;-71
2022/05/12 09:46:21;;;;;;;;;;;;;;;22.57;63.88;97432.14;610091;232;67147;-71
2022/05/12 09:48:49;;;;;;;;;;;;;;;22.58;65.69;97426.49;610093;232;65102;-72
2022/05/12 09:51:24;;;;;;;;;;;;;;;22.58;63.38;97421.13;610030;232;66471;-70
2022/05/12 09:53:53;;;;;;;;;;;;;;;22.59;64.07;97421.96;610135;232;66762;-69
2022/05/12 09:56:22;;;;;;;;;;;;;;;22.59;65.47;97414.72;608876;232;65257;-69
2022/05/12 09:58:51;;;;;;;;;;;;;;;22.60;66.03;97418.20;608747;232;67745;-69
2022/05/12 10:01:20;;;;;;;;;;;;;;;22.60;66.61;97418.20;609891;231;64453;-70
2022/05/12 10:09:24;;;;;;;;;;;;;;;22.61;64.04;97411.75;610140;232;66512;-70
2022/05/12 10:12:08;;;;;;;;;;;;;;;22.63;64.46;97406.14;610025;232;62991;-71
2022/05/12 10:14:53;;;;;;;;;;;;;;;22.64;63.35;97410.41;609561;232;66797;-71
2022/05/12 10:17:23;;;;;;;;;;;;;;;22.63;64.41;97398.10;610067;232;64662;-71
2022/05/12 10:19:51;;;;;;;;;;;;;;;22.63;63.27;97401.58;610018;232;65978;-70
2022/05/12 10:22:35;;;;;;;;;;;;;;;22.64;64.06;97394.34;609946;232;66922;-70
2022/05/12 10:25:19;;;;;;;;;;;;;;;22.65;63.67;97396.76;610041;231;64333;-69
2022/05/12 10:28:07;;;;;;;;;;;;;;;22.65;61.86;97386.05;599800;235;65379;-69
2022/05/12 10:30:35;;;;;;;;;;;;;;;22.65;63.15;97385.25;582600;242;66927;-69
2022/05/12 10:33:16;;;;;;;;;;;;;;;22.66;62.70;97384.95;582490;243;64826;-73
2022/05/12 10:35:46;;;;;;;;;;;;;;;22.66;61.95;97376.92;594908;231;65500;-73
2022/05/12 10:38:18;;;;;;;;;;;;;;;22.67;61.06;97367.83;610000;232;66914;-71
2022/05/12 10:40:50;;;;;;;;;;;;;;;22.68;61.37;97372.09;610036;232;66703;-69
2022/05/12 10:43:25;;;;;;;;;;;;;;;22.68;61.23;97374.78;609949;231;65470;-70
2022/05/12 10:46:01;;;;;;;;;;;;;;;22.69;62.14;97376.38;610107;232;66811;-70
2022/05/12 10:48:30;;;;;;;;;;;;;;;22.69;61.53;97371.02;610020;232;66721;-70
2022/05/12 10:51:02;;;;;;;;;;;;;;;22.71;61.94;97370.75;610134;232;65411;-71
2022/05/12 10:53:37;;;;;;;;;;;;;;;22.71;61.66;97368.88;610100;232;66514;-70
2022/05/12 10:56:12;;;;;;;;;;;;;;;22.71;60.00;97365.39;609978;232;66706;-76
2022/05/12 10:58:42;;;;;;;;;;;;;;;22.72;61.48;97359.75;610036;232;65156;-77
2022/05/12 11:01:10;;;;;;;;;;;;;;;22.73;61.85;97360.58;609265;232;68351;-76
2022/05/12 11:03:42;;;;;;;;;;;;;;;22.73;61.60;97356.02;610965;231;66956;-76
2022/05/12 11:06:11;;;;;;;;;;;;;;;22.74;61.67;97346.89;614029;230;64962;-76
2022/05/12 11:08:40;;;;;;;;;;;;;;;22.75;62.56;97342.33;616366;230;66754;-76
2022/05/12 11:11:09;;;;;;;;;;;;;;;22.75;61.53;97340.47;616394;230;66679;-76
2022/05/12 11:13:39;;;;;;;;;;;;;;;22.75;62.66;97334.28;616485;230;65902;-79
2022/05/12 11:16:08;;;;;;;;;;;;;;;22.77;62.15;97335.61;616394;230;66598;-76
2022/05/12 11:18:37;;;;;;;;;;;;;;;22.76;63.04;97331.34;616377;230;66477;-76
2022/05/12 11:21:06;;;;;;;;;;;;;;;22.78;62.23;97331.05;616277;230;65391;-77
2022/05/12 11:23:38;;;;;;;;;;;;;;;22.82;60.28;97322.20;616346;230;66722;-77
2022/05/12 11:26:16;;;;;;;;;;;;;;;22.83;62.47;97323.00;616319;230;66553;-74
2022/05/12 11:31:38;;;;;;;;;;;;;;;22.82;62.73;97324.08;616387;230;66577;-76
2022/05/12 11:34:10;;;;;;;;;;;;;;;22.83;64.09;97314.95;616299;230;66384;-77
2022/05/12 11:36:48;;;;;;;;;;;;;;;22.83;65.69;97321.14;616425;230;65429;-75
2022/05/12 11:39:22;;;;;;;;;;;;;;;22.83;65.79;97309.59;616408;229;66519;-75
2022/05/12 11:41:50;;;;;;;;;;;;;;;22.83;64.12;97302.39;616483;230;64378;-77
2022/05/12 11:44:24;;;;;;;;;;;;;;;22.84;65.18;97303.18;616422;230;63014;-77
2022/05/12 11:47:09;;;;;;;;;;;;;;;22.86;66.41;97300.20;616404;230;66837;-75
2022/05/12 11:49:41;;;;;;;;;;;;;;;22.87;62.21;97296.47;616429;230;67079;-74
2022/05/12 11:52:25;;;;;;;;;;;;;;;22.87;63.17;97288.44;616252;230;62999;-75
2022/05/12 11:54:57;;;;;;;;;;;;;;;22.88;65.86;97298.06;616376;230;66742;-76
2022/05/12 11:57:29;;;;;;;;;;;;;;;22.88;65.84;97288.14;616162;230;66668;-77
2022/05/12 11:59:58;;;;;;;;;;;;;;;22.88;65.78;97285.45;616243;230;66433;-73
2022/05/12 12:02:30;;;;;;;;;;;;;;;22.89;66.43;97278.22;616377;230;66596;-74
2022/05/12 12:04:59;;;;;;;;;;;;;;;22.90;65.37;97279.84;616410;230;66832;-74
2022/05/12 12:07:35;;;;;;;;;;;;;;;22.89;64.86;97273.68;616446;230;65390;-74
2022/05/12 12:10:07;;;;;;;;;;;;;;;22.90;64.02;97269.91;616443;230;66552;-78
2022/05/12 12:12:45;;;;;;;;;;;;;;;22.92;64.51;97265.08;616134;230;66680;-75
2022/05/12 12:15:28;;;;;;;;;;;;;;;22.93;64.82;97260.52;616355;230;65493;-76
2022/05/12 12:17:55;;;;;;;;;;;;;;;22.93;65.55;97263.99;616357;230;68049;-77
2022/05/12 12:20:33;;;;;;;;;;;;;;;22.94;66.70;97260.22;616300;230;66690;-79
2022/05/12 12:23:15;;;;;;;;;;;;;;;22.94;65.24;97259.43;616482;230;63084;-78
2022/05/12 12:25:44;;;;;;;;;;;;;;;22.94;65.66;97254.07;616385;230;66923;-79
2022/05/12 12:28:28;;;;;;;;;;;;;;;22.96;66.48;97251.95;616376;230;66928;-76
2022/05/12 12:30:57;;;;;;;;;;;;;;;22.96;65.24;97246.59;616283;230;65367;-75
2022/05/12 12:33:34;;;;;;;;;;;;;;;22.96;64.01;97251.95;616404;230;64926;-77
2022/05/12 12:36:09;;;;;;;;;;;;;;;22.97;66.92;97248.18;616023;230;64818;-75
2022/05/12 12:38:46;;;;;;;;;;;;;;;22.96;64.88;97241.23;615364;229;65335;-76
2022/05/12 12:41:19;;;;;;;;;;;;;;;22.97;65.55;97237.46;616420;230;67178;-77
2022/05/12 12:43:51;;;;;;;;;;;;;;;22.97;66.49;97235.61;616473;230;67201;-76
2022/05/12 12:46:26;;;;;;;;;;;;;;;22.97;65.68;97232.09;615087;230;65355;-78
2022/05/12 12:49:04;;;;;;;;;;;;;;;22.98;64.79;97237.20;616405;230;64543;-78
2022/05/12 12:51:36;;;;;;;;;;;;;;;22.99;65.04;97229.95;616259;230;64659;-77
2022/05/12 12:56:50;;;;;;;;;;;;;;;22.99;66.16;97224.59;616359;230;65028;-80
2022/05/12 12:59:19;;;;;;;;;;;;;;;22.99;67.25;97224.59;616518;230;64573;-80
2022/05/12 13:01:52;;;;;;;;;;;;;;;23.00;66.18;97218.17;616412;230;65442;-81
2022/05/12 13:04:24;;;;;;;;;;;;;;;23.01;67.18;97217.88;616335;230;64806;-77
2022/05/12 13:06:53;;;;;;;;;;;;;;;23.01;66.29;97217.08;616435;230;65339;-76
2022/05/12 13:09:22;;;;;;;;;;;;;;;23.02;65.78;97207.95;616412;230;65276;-78
2022/05/12 13:11:49;;;;;;;;;;;;;;;23.02;64.05;97203.37;616304;230;66950;-76
2022/05/12 13:14:17;;;;;;;;;;;;;;;23.04;66.65;97200.44;616481;230;66970;-76
2022/05/12 13:16:46;;;;;;;;;;;;;;;23.03;65.62;97193.48;616392;230;64028;-76
2022/05/12 13:19:13;;;;;;;;;;;;;;;23.04;65.97;97198.55;616360;230;67045;-77
2022/05/12 13:21:47;;;;;;;;;;;;;;;23.04;66.32;97200.44;616441;230;67070;-72
2022/05/12 13:24:17;;;;;;;;;;;;;;;23.03;66.97;97196.95;616382;230;65669;-75